Terminal Aerodrome Forecast
Issued by NWS

Home | Current Version | Previous Version | Text Only | Print | Product List | Glossary On
Versions: 1 2 3 4 5 6 7 8 9 10 11 12 13 14 15 16 17 18
000
FTUS45 KSLC 252328
TAF36U
TAF
K36U 252328Z 2600/2624 20006KT P6SM VCSH SCT060 BKN080
     FM260200 VRB03KT P6SM SCT080 BKN120
     FM261400 22008KT P6SM VCSH BKN070
     FM261600 22014KT P6SM -SHRA BKN070=

USA.gov is the U.S. government's official web portal to all federal, state and local government web resources and services.